createdAt,value
2023-05-12T00:00:48.363Z,22.6
2023-05-12T00:01:50.204Z,22.6
2023-05-12T00:02:52.297Z,22.6
2023-05-12T00:03:54.888Z,22.5
2023-05-12T00:04:57.361Z,22.5
2023-05-12T00:05:59.349Z,22.5
2023-05-12T00:07:01.208Z,22.5
2023-05-12T00:08:03.052Z,22.5
2023-05-12T00:09:05.022Z,22.5
2023-05-12T00:10:06.857Z,22.4
2023-05-12T00:11:08.673Z,22.4
2023-05-12T00:12:10.556Z,22.5
2023-05-12T00:13:12.551Z,22.4
2023-05-12T00:14:14.668Z,22.4
2023-05-12T00:15:16.260Z,22.4
2023-05-12T00:16:18.078Z,22.4
2023-05-12T00:17:20.196Z,22.4
2023-05-12T00:18:22.322Z,22.4
2023-05-12T00:19:24.324Z,22.3
2023-05-12T00:20:26.185Z,22.4
2023-05-12T00:21:28.121Z,22.3
2023-05-12T00:22:29.979Z,22.4
2023-05-12T00:23:31.829Z,22.4
2023-05-12T00:24:33.721Z,22.4
2023-05-12T00:25:35.530Z,22.4
2023-05-12T00:26:37.376Z,22.4
2023-05-12T00:27:39.334Z,22.4
2023-05-12T00:28:41.188Z,22.4
2023-05-12T00:29:42.968Z,22.4
2023-05-12T00:30:44.986Z,22.3
2023-05-12T00:31:47.154Z,22.3
2023-05-12T00:32:49.319Z,22.3
2023-05-12T00:33:51.354Z,22.3
2023-05-12T00:34:53.232Z,22.3
2023-05-12T00:35:55.047Z,22.3
2023-05-12T00:36:56.805Z,22.3
2023-05-12T00:37:58.751Z,22.3
2023-05-12T00:39:00.599Z,22.3
2023-05-12T00:40:02.475Z,22.3
2023-05-12T00:41:04.419Z,22.3
2023-05-12T00:42:06.311Z,22.3
2023-05-12T00:43:08.098Z,22.2
2023-05-12T00:44:09.949Z,22.3
2023-05-12T00:45:11.800Z,22.3
2023-05-12T00:46:13.765Z,22.3
2023-05-12T00:47:15.702Z,22.3
2023-05-12T00:48:17.580Z,22.2
2023-05-12T00:49:19.208Z,22.2
2023-05-12T00:50:21.660Z,22.2
2023-05-12T00:51:24.135Z,22.2
2023-05-12T00:52:26.080Z,22.2
2023-05-12T00:53:45.341Z,22.2
2023-05-12T00:54:52.213Z,22.2
2023-05-12T00:55:54.185Z,22.2
2023-05-12T00:56:56.122Z,22.2
2023-05-12T00:58:01.015Z,22.2
2023-05-12T00:59:02.881Z,22.2
2023-05-12T01:00:04.709Z,22.2
2023-05-12T01:01:06.836Z,22.2
2023-05-12T01:02:09.018Z,22.3
2023-05-12T01:03:11.076Z,22.2
2023-05-12T01:04:13.271Z,22.3
2023-05-12T01:05:15.118Z,22.3
2023-05-12T01:06:17.050Z,22.3
2023-05-12T01:07:18.897Z,22.2
2023-05-12T01:08:20.765Z,22.3
2023-05-12T01:09:22.625Z,22.3
2023-05-12T01:10:24.420Z,22.3
2023-05-12T01:11:26.150Z,22.3
2023-05-12T01:12:28.088Z,22.3
2023-05-12T01:13:29.902Z,22.3
2023-05-12T01:14:31.497Z,22.3
2023-05-12T01:15:33.204Z,22.3
2023-05-12T01:16:35.151Z,22.3
2023-05-12T01:17:37.274Z,22.3
2023-05-12T01:18:39.707Z,22.3
2023-05-12T01:19:41.623Z,22.4
2023-05-12T01:20:43.494Z,22.4
2023-05-12T01:21:45.433Z,22.4
2023-05-12T01:22:47.080Z,22.3
2023-05-12T01:23:48.927Z,22.3
2023-05-12T01:24:50.888Z,22.3
2023-05-12T01:25:52.731Z,22.3
2023-05-12T01:26:54.709Z,22.3
2023-05-12T01:27:56.631Z,22.4
2023-05-12T01:28:58.588Z,22.3
2023-05-12T01:30:00.435Z,22.4
2023-05-12T01:31:02.340Z,22.4
2023-05-12T01:32:04.345Z,22.4
2023-05-12T01:33:06.313Z,22.4
2023-05-12T01:34:08.253Z,22.4
2023-05-12T01:35:10.102Z,22.4
2023-05-12T01:36:11.959Z,22.4
2023-05-12T01:37:13.922Z,22.4
2023-05-12T01:38:15.853Z,22.4
2023-05-12T01:39:17.711Z,22.5
2023-05-12T01:40:20.057Z,22.1
2023-05-12T01:41:22.928Z,22.2
2023-05-12T01:42:27.721Z,22.8
2023-05-12T01:43:29.810Z,22.9
2023-05-12T01:44:31.678Z,22.8
2023-05-12T01:45:33.428Z,22.8
2023-05-12T01:46:35.505Z,22.9
2023-05-12T01:47:37.868Z,22.9
2023-05-12T01:48:40.085Z,22.9
2023-05-12T01:49:42.046Z,22.9
2023-05-12T01:50:43.889Z,22.9
2023-05-12T01:51:45.733Z,22.9
2023-05-12T01:52:47.681Z,22.9
2023-05-12T01:53:49.638Z,22.9
2023-05-12T01:54:51.587Z,22.9
2023-05-12T01:55:53.436Z,22.8
2023-05-12T01:56:55.414Z,22.8
2023-05-12T01:57:57.281Z,22.8
2023-05-12T01:58:59.226Z,22.8
2023-05-12T02:00:01.063Z,22.8
2023-05-12T02:01:02.893Z,22.8
2023-05-12T02:02:04.858Z,22.8
2023-05-12T02:03:07.170Z,22.8
2023-05-12T02:04:09.715Z,22.8
2023-05-12T02:05:11.721Z,22.7
2023-05-12T02:06:13.472Z,22.7
2023-05-12T02:07:15.350Z,22.8
2023-05-12T02:08:17.276Z,22.8
2023-05-12T02:09:19.121Z,22.8
2023-05-12T02:10:21.568Z,22.8
2023-05-12T02:11:24.155Z,22.8
2023-05-12T02:12:26.015Z,22.8
2023-05-12T02:13:27.981Z,22.8
2023-05-12T02:14:29.812Z,22.8
2023-05-12T02:15:31.764Z,22.8
2023-05-12T02:16:33.749Z,22.8
2023-05-12T02:17:36.021Z,22.8
2023-05-12T02:18:37.989Z,22.8
2023-05-12T02:19:42.650Z,22.8
2023-05-12T02:20:44.703Z,22.8
2023-05-12T02:21:46.505Z,22.8
2023-05-12T02:22:48.507Z,22.8
2023-05-12T02:23:50.214Z,22.8
2023-05-12T02:24:51.979Z,22.9
2023-05-12T02:25:53.964Z,22.9
2023-05-12T02:26:55.791Z,22.9
2023-05-12T02:27:57.552Z,22.9
2023-05-12T02:28:59.402Z,22.9
2023-05-12T02:30:01.360Z,22.9
2023-05-12T02:31:03.203Z,22.9
2023-05-12T02:32:05.412Z,22.9
2023-05-12T02:33:07.821Z,22.9
2023-05-12T02:34:09.766Z,22.9
2023-05-12T02:35:11.540Z,22.9
2023-05-12T02:36:13.381Z,22.9
2023-05-12T02:37:15.229Z,22.9
2023-05-12T02:38:17.079Z,22.9
2023-05-12T02:39:18.935Z,22.9
2023-05-12T02:40:20.948Z,22.9
2023-05-12T02:41:23.437Z,22.9
2023-05-12T02:42:25.384Z,22.9
2023-05-12T02:43:27.197Z,22.9
2023-05-12T02:44:28.917Z,23
2023-05-12T02:45:30.984Z,23
2023-05-12T02:46:33.104Z,22.9
2023-05-12T02:47:34.976Z,23
2023-05-12T02:48:36.692Z,23
2023-05-12T02:49:38.567Z,23
2023-05-12T02:50:40.508Z,23
2023-05-12T02:51:42.358Z,23
2023-05-12T02:52:44.188Z,23
2023-05-12T02:53:46.044Z,23
2023-05-12T02:54:47.795Z,23
2023-05-12T02:55:49.647Z,23
2023-05-12T02:56:51.393Z,23.1
2023-05-12T02:57:53.250Z,23.1
2023-05-12T02:58:55.212Z,23.1
2023-05-12T02:59:57.087Z,23.1
2023-05-12T03:01:11.382Z,23.1
2023-05-12T03:02:13.893Z,23
2023-05-12T03:03:16.041Z,23
2023-05-12T03:04:18.273Z,23
2023-05-12T03:05:19.920Z,23.1
2023-05-12T03:06:21.775Z,23.1
2023-05-12T03:07:23.528Z,23.4
2023-05-12T03:08:25.381Z,23.5
2023-05-12T03:09:27.321Z,23.6
2023-05-12T03:10:29.139Z,23.9
2023-05-12T03:11:31.030Z,24
2023-05-12T03:12:32.952Z,24.1
2023-05-12T03:13:34.947Z,24.2
2023-05-12T03:14:36.764Z,24.3
2023-05-12T03:15:38.665Z,24.3
2023-05-12T03:16:40.820Z,24.4
2023-05-12T03:17:42.638Z,24.6
2023-05-12T03:18:44.632Z,24.7
2023-05-12T03:19:46.730Z,24.7
2023-05-12T03:20:48.701Z,24.7
2023-05-12T03:21:50.493Z,24.7
2023-05-12T03:22:52.298Z,24.7
2023-05-12T03:23:54.151Z,24.8
2023-05-12T03:24:56.098Z,24.7
2023-05-12T03:25:57.943Z,24.7
2023-05-12T03:26:59.807Z,24.7
2023-05-12T03:28:01.642Z,24.9
2023-05-12T03:29:03.496Z,24.9
2023-05-12T03:30:05.450Z,25
2023-05-12T03:31:07.342Z,25.2
2023-05-12T03:32:09.582Z,25.4
2023-05-12T03:33:11.422Z,25.4
2023-05-12T03:34:13.239Z,25.4
2023-05-12T03:35:15.106Z,25.4
2023-05-12T03:36:16.955Z,25.3
2023-05-12T03:37:18.809Z,25.3
2023-05-12T03:38:20.651Z,25.2
2023-05-12T03:39:22.619Z,25.2
2023-05-12T03:40:24.340Z,25.3
2023-05-12T03:41:26.210Z,25.4
2023-05-12T03:42:27.959Z,25.3
2023-05-12T03:43:29.705Z,25.4
2023-05-12T03:44:31.505Z,25.5
2023-05-12T03:45:33.295Z,25.7
2023-05-12T03:46:35.382Z,25.8
2023-05-12T03:47:38.022Z,25.8
2023-05-12T03:48:40.555Z,25.8
2023-05-12T03:49:42.648Z,25.7
2023-05-12T03:50:47.375Z,25.8
2023-05-12T03:51:49.215Z,25.8
2023-05-12T03:52:50.859Z,25.8
2023-05-12T03:53:52.718Z,25.8
2023-05-12T03:54:54.566Z,25.9
2023-05-12T03:55:56.421Z,26.1
2023-05-12T03:57:01.031Z,26
2023-05-12T03:58:02.983Z,26.1
2023-05-12T03:59:04.722Z,26.1
2023-05-12T04:00:06.486Z,26.2
2023-05-12T04:01:08.216Z,26.3
2023-05-12T04:02:10.234Z,26.2
2023-05-12T04:03:12.851Z,26.2
2023-05-12T04:04:15.053Z,26.2
2023-05-12T04:05:17.359Z,26.2
2023-05-12T04:06:19.224Z,26.4
2023-05-12T04:07:20.834Z,26.3
2023-05-12T04:08:22.632Z,26.3
2023-05-12T04:09:24.339Z,26.6
2023-05-12T04:10:25.996Z,26.7
2023-05-12T04:11:27.837Z,26.7
2023-05-12T04:12:30.107Z,26.7
2023-05-12T04:13:33.386Z,26.7
2023-05-12T04:14:43.587Z,26.8
2023-05-12T04:15:45.385Z,26.5
2023-05-12T04:16:50.334Z,26.4
2023-05-12T04:17:52.452Z,26.3
2023-05-12T04:18:54.533Z,26.3
2023-05-12T04:19:56.310Z,26.3
2023-05-12T04:20:57.859Z,26.3
2023-05-12T04:21:59.502Z,26.2
2023-05-12T04:23:01.120Z,26.2
2023-05-12T04:24:02.878Z,26.2
2023-05-12T04:25:04.590Z,26.2
2023-05-12T04:26:06.349Z,26.2
2023-05-12T04:27:08.308Z,26.2
2023-05-12T04:28:12.421Z,26.2
2023-05-12T04:29:14.220Z,26.1
2023-05-12T04:30:16.092Z,25.9
2023-05-12T04:31:18.181Z,25.9
2023-05-12T04:32:20.388Z,25.9
2023-05-12T04:33:22.445Z,25.8
2023-05-12T04:34:24.409Z,25.9
2023-05-12T04:35:26.259Z,25.9
2023-05-12T04:36:28.090Z,26.1
2023-05-12T04:37:29.940Z,26.2
2023-05-12T04:38:31.810Z,26.4
2023-05-12T04:39:33.600Z,26.3
2023-05-12T04:40:35.511Z,26.3
2023-05-12T04:41:37.071Z,26.3
2023-05-12T04:42:38.651Z,26.2
2023-05-12T04:44:54.143Z,26
2023-05-12T04:45:57.068Z,25.9
2023-05-12T04:47:02.142Z,25.9
2023-05-12T04:48:03.806Z,25.8
2023-05-12T04:49:05.511Z,25.8
2023-05-12T04:50:07.215Z,25.8
2023-05-12T04:51:09.287Z,25.7
2023-05-12T04:52:11.037Z,25.8
2023-05-12T04:53:12.741Z,25.9
2023-05-12T04:54:14.320Z,26
2023-05-12T04:55:16.060Z,26
2023-05-12T04:56:17.865Z,25.9
2023-05-12T04:57:19.467Z,25.9
2023-05-12T04:58:21.049Z,25.9
2023-05-12T04:59:22.673Z,25.8
2023-05-12T05:00:24.320Z,26
2023-05-12T05:01:26.086Z,26
2023-05-12T05:02:28.150Z,26
2023-05-12T05:03:33.691Z,26
2023-05-12T05:04:35.855Z,25.9
2023-05-12T05:05:37.652Z,26.1
2023-05-12T05:06:39.473Z,26.2
2023-05-12T05:07:41.019Z,26.2
2023-05-12T05:08:42.636Z,26.2
2023-05-12T05:09:44.320Z,26.3
2023-05-12T05:10:46.085Z,26.5
2023-05-12T05:11:47.917Z,26.4
2023-05-12T05:12:49.764Z,26.3
2023-05-12T05:13:51.465Z,26.2
2023-05-12T05:14:53.444Z,26.2
2023-05-12T05:15:55.499Z,26.1
2023-05-12T05:16:57.468Z,26.1
2023-05-12T05:18:02.089Z,26.3
2023-05-12T05:19:15.390Z,26.3
2023-05-12T05:20:58.724Z,26.3
2023-05-12T05:22:01.190Z,26.3
2023-05-12T05:23:02.946Z,26.2
2023-05-12T05:24:05.378Z,26
2023-05-12T05:25:10.634Z,25.8
2023-05-12T05:26:12.584Z,25.8
2023-05-12T05:27:14.441Z,25.8
2023-05-12T05:28:16.245Z,25.8
2023-05-12T05:29:18.091Z,25.7
2023-05-12T05:30:22.901Z,25.6
2023-05-12T05:31:24.917Z,25.6
2023-05-12T05:32:26.856Z,25.5
2023-05-12T05:33:28.812Z,25.4
2023-05-12T05:34:30.863Z,25.3
2023-05-12T05:35:32.720Z,25.3
2023-05-12T05:36:34.593Z,25.3
2023-05-12T05:37:39.389Z,25.2
2023-05-12T05:38:41.031Z,25.3
2023-05-12T05:39:42.791Z,25.2
2023-05-12T05:40:54.617Z,25.4
2023-05-12T05:41:56.387Z,25.2
2023-05-12T05:42:57.959Z,25.1
2023-05-12T05:43:59.550Z,25.1
2023-05-12T05:45:01.209Z,25.1
2023-05-12T05:46:02.799Z,25
2023-05-12T05:47:04.769Z,25.1
2023-05-12T05:48:07.013Z,25.2
2023-05-12T05:49:08.811Z,25.1
2023-05-12T05:50:10.497Z,24.9
2023-05-12T05:51:12.349Z,24.9
2023-05-12T05:52:14.343Z,24.9
2023-05-12T05:53:16.249Z,24.9
2023-05-12T05:54:17.998Z,25
2023-05-12T05:55:20.388Z,25
2023-05-12T05:56:23.051Z,25
2023-05-12T05:57:24.747Z,25
2023-05-12T05:58:26.305Z,25
2023-05-12T05:59:27.877Z,25
2023-05-12T06:00:29.626Z,25
2023-05-12T06:01:31.673Z,24.9
2023-05-12T06:02:33.920Z,25
2023-05-12T06:03:36.323Z,25
2023-05-12T06:04:38.345Z,25
2023-05-12T06:05:40.294Z,25
2023-05-12T06:06:42.039Z,24.9
2023-05-12T06:07:44.017Z,25
2023-05-12T06:08:45.850Z,24.9
2023-05-12T06:09:47.587Z,24.8
2023-05-12T06:10:49.313Z,24.9
2023-05-12T06:11:51.194Z,24.8
2023-05-12T06:12:53.046Z,24.9
2023-05-12T06:13:54.879Z,24.8
2023-05-12T06:14:56.654Z,24.8
2023-05-12T06:15:58.288Z,24.8
2023-05-12T06:17:00.201Z,24.7
2023-05-12T06:18:02.193Z,24.7
2023-05-12T06:19:04.285Z,24.7
2023-05-12T06:20:06.156Z,24.7
2023-05-12T06:21:07.753Z,24.6
2023-05-12T06:22:09.371Z,24.5
2023-05-12T06:23:10.977Z,24.4
2023-05-12T06:24:12.610Z,24.6
2023-05-12T06:25:14.288Z,24.5
2023-05-12T06:26:15.904Z,24.5
2023-05-12T06:27:17.527Z,24.4
2023-05-12T06:28:22.229Z,24.6
2023-05-12T06:29:23.973Z,24.5
2023-05-12T06:30:25.920Z,24.4
2023-05-12T06:31:27.787Z,24.4
2023-05-12T06:32:29.931Z,24.2
2023-05-12T06:33:31.724Z,24.2
2023-05-12T06:34:33.356Z,24.2
2023-05-12T06:35:35.038Z,24.3
2023-05-12T06:36:36.683Z,24.6
2023-05-12T06:37:38.296Z,24.6
2023-05-12T06:38:40.125Z,24.6
2023-05-12T06:39:41.976Z,24.6
2023-05-12T06:40:43.700Z,24.6
2023-05-12T06:41:45.326Z,24.6
2023-05-12T06:42:46.867Z,24.6
2023-05-12T06:43:48.508Z,24.6
2023-05-12T06:44:50.384Z,24.5
2023-05-12T06:45:52.340Z,24.6
2023-05-12T06:46:54.602Z,24.6
2023-05-12T06:47:56.367Z,24.6
2023-05-12T06:48:58.305Z,24.6
2023-05-12T06:50:00.142Z,24.6
2023-05-12T06:51:01.832Z,24.6
2023-05-12T06:52:03.485Z,24.6
2023-05-12T06:53:05.166Z,24.6
2023-05-12T06:54:07.255Z,24.5
2023-05-12T06:55:09.079Z,24.4
2023-05-12T06:56:10.912Z,24.5
2023-05-12T06:57:12.865Z,24.5
2023-05-12T06:58:14.766Z,24.5
2023-05-12T06:59:16.596Z,24.5
2023-05-12T07:00:18.438Z,24.5
2023-05-12T07:01:20.340Z,24.5
2023-05-12T07:02:22.467Z,24.5
2023-05-12T07:03:24.545Z,24.4
2023-05-12T07:04:26.795Z,24.4
2023-05-12T07:05:28.650Z,24.3
2023-05-12T07:06:30.630Z,24.3
2023-05-12T07:07:32.406Z,24.3
2023-05-12T07:08:34.161Z,24.3
2023-05-12T07:09:36.229Z,24.3
2023-05-12T07:10:38.071Z,24.3
2023-05-12T07:11:39.842Z,24.3
2023-05-12T07:12:41.778Z,24.3
2023-05-12T07:13:43.503Z,24.2
2023-05-12T07:14:45.492Z,24.2
2023-05-12T07:15:47.342Z,24.3
2023-05-12T07:16:49.273Z,24.2
2023-05-12T07:17:51.347Z,24.3
2023-05-12T07:18:53.330Z,24.2
2023-05-12T07:19:55.369Z,24.3
2023-05-12T07:20:57.189Z,24.2
2023-05-12T07:21:59.028Z,24.2
2023-05-12T07:23:00.655Z,23.9
2023-05-12T07:24:02.318Z,24
2023-05-12T07:25:04.322Z,24
2023-05-12T07:26:06.435Z,24.1
2023-05-12T07:27:08.183Z,24.1
2023-05-12T07:28:10.028Z,24.1
2023-05-12T07:29:14.221Z,24
2023-05-12T07:30:16.488Z,24.1
2023-05-12T07:31:18.254Z,24
2023-05-12T07:32:20.098Z,24
2023-05-12T07:33:22.021Z,24.1
2023-05-12T07:34:23.588Z,24
2023-05-12T07:35:25.176Z,24.1
2023-05-12T07:36:27.054Z,24
2023-05-12T07:37:28.836Z,24
2023-05-12T07:38:30.682Z,23.9
2023-05-12T07:39:32.570Z,23.9
2023-05-12T07:40:34.413Z,23.9
2023-05-12T07:41:36.219Z,23.9
2023-05-12T07:42:37.973Z,23.9
2023-05-12T07:43:39.921Z,23.8
2023-05-12T07:44:41.879Z,23.8
2023-05-12T07:45:43.729Z,23.9
2023-05-12T07:46:45.472Z,23.9
2023-05-12T07:47:47.468Z,23.9
2023-05-12T07:48:49.610Z,23.7
2023-05-12T07:49:51.447Z,23.8
2023-05-12T07:50:53.295Z,23.8
2023-05-12T07:51:55.045Z,23.7
2023-05-12T07:52:56.866Z,23.6
2023-05-12T07:53:58.767Z,23.8
2023-05-12T07:55:00.823Z,23.8
2023-05-12T07:56:02.828Z,23.7
2023-05-12T07:57:04.815Z,23.8
2023-05-12T07:58:06.553Z,23.8
2023-05-12T07:59:08.512Z,23.7
2023-05-12T08:00:10.375Z,23.7
2023-05-12T08:01:12.008Z,23.6
2023-05-12T08:02:13.934Z,23.5
2023-05-12T08:03:16.284Z,23.5
2023-05-12T08:04:18.720Z,23.6
2023-05-12T08:05:21.038Z,23.6
2023-05-12T08:06:25.249Z,23.6
2023-05-12T08:07:27.070Z,23.7
2023-05-12T08:08:28.828Z,23.7
2023-05-12T08:09:30.505Z,23.6
2023-05-12T08:10:32.164Z,23.4
2023-05-12T08:11:33.988Z,23.4
2023-05-12T08:12:35.799Z,23.4
2023-05-12T08:13:37.828Z,23.4
2023-05-12T08:14:39.722Z,23.4
2023-05-12T08:15:41.528Z,23.4
2023-05-12T08:16:43.598Z,23.4
2023-05-12T08:17:46.021Z,23.5
2023-05-12T08:18:48.030Z,23.4
2023-05-12T08:19:50.115Z,23.5
2023-05-12T08:20:51.856Z,23.6
2023-05-12T08:21:53.666Z,23.5
2023-05-12T08:22:55.472Z,23.4
2023-05-12T08:23:57.278Z,23.5
2023-05-12T08:24:59.069Z,23.4
2023-05-12T08:26:00.915Z,23.4
2023-05-12T08:27:03.732Z,23.4
2023-05-12T08:28:06.151Z,23.3
2023-05-12T08:29:07.989Z,23.3
2023-05-12T08:30:09.966Z,23.3
2023-05-12T08:31:11.796Z,23.2
2023-05-12T08:32:14.280Z,23.2
2023-05-12T08:33:16.017Z,23.2
2023-05-12T08:34:17.797Z,23.2
2023-05-12T08:35:19.869Z,23.2
2023-05-12T08:36:22.376Z,23.2
2023-05-12T08:37:24.337Z,23.3
2023-05-12T08:38:26.076Z,23.1
2023-05-12T08:39:27.928Z,23.1
2023-05-12T08:40:29.801Z,23.1
2023-05-12T08:41:31.738Z,23.2
2023-05-12T08:42:33.713Z,23.2
2023-05-12T08:43:35.689Z,23.2
2023-05-12T08:44:37.533Z,23.1
2023-05-12T08:45:39.163Z,23.1
2023-05-12T08:46:43.838Z,23.1
2023-05-12T08:47:46.188Z,23
2023-05-12T08:48:48.238Z,23
2023-05-12T08:49:52.751Z,23
2023-05-12T08:50:54.534Z,23
2023-05-12T08:51:58.611Z,23
2023-05-12T08:53:00.298Z,22.9
2023-05-12T08:54:01.915Z,23
2023-05-12T08:55:03.978Z,22.9
2023-05-12T08:57:19.557Z,22.8
2023-05-12T08:58:40.754Z,22.8
2023-05-12T08:59:44.316Z,22.8
2023-05-12T09:00:46.315Z,22.8
2023-05-12T09:01:48.443Z,22.7
2023-05-12T09:02:55.012Z,22.7
2023-05-12T09:03:57.650Z,22.7
2023-05-12T09:04:59.642Z,22.6
2023-05-12T09:06:01.489Z,22.6
2023-05-12T09:07:03.140Z,22.6
2023-05-12T09:08:04.965Z,22.7
2023-05-12T09:09:06.730Z,22.8
2023-05-12T09:10:08.700Z,22.8
2023-05-12T09:11:10.718Z,22.7
2023-05-12T09:12:14.470Z,22.8
2023-05-12T09:13:18.434Z,22.8
2023-05-12T09:14:20.201Z,22.8
2023-05-12T09:15:22.553Z,22.7
2023-05-12T09:16:25.118Z,22.7
2023-05-12T09:17:27.283Z,22.7
2023-05-12T09:18:29.108Z,22.7
2023-05-12T09:19:30.964Z,22.6
2023-05-12T09:20:32.924Z,22.6
2023-05-12T09:21:35.190Z,22.6
2023-05-12T09:22:37.491Z,22.5
2023-05-12T09:23:39.135Z,22.5
2023-05-12T09:24:42.640Z,22.5
2023-05-12T09:25:44.372Z,22.5
2023-05-12T09:26:46.216Z,22.5
2023-05-12T09:27:48.128Z,22.5
2023-05-12T09:28:49.967Z,22.4
2023-05-12T09:29:59.812Z,22.4
2023-05-12T09:31:01.981Z,22.4
2023-05-12T09:32:04.381Z,22.4
2023-05-12T09:33:06.405Z,22.4
2023-05-12T09:34:08.454Z,22.4
2023-05-12T09:35:10.407Z,22.4
2023-05-12T09:36:12.323Z,22.5
2023-05-12T09:37:15.716Z,22.6
2023-05-12T09:38:17.655Z,22.5
2023-05-12T09:39:19.333Z,22.6
2023-05-12T09:40:21.285Z,22.6
2023-05-12T09:41:23.155Z,22.5
2023-05-12T09:42:25.147Z,22.5
2023-05-12T09:43:26.776Z,22.5
2023-05-12T09:44:28.459Z,22.1
2023-05-12T09:45:30.143Z,22.2
2023-05-12T09:46:32.086Z,22.3
2023-05-12T09:47:34.270Z,22.6
2023-05-12T09:48:36.257Z,22.6
2023-05-12T09:49:37.904Z,22.8
2023-05-12T09:50:48.323Z,22.7
2023-05-12T09:51:50.541Z,22.7
2023-05-12T09:52:52.494Z,22.7
2023-05-12T09:53:54.327Z,22.8
2023-05-12T09:54:56.109Z,22.9
2023-05-12T09:55:57.727Z,22.7
2023-05-12T09:56:59.373Z,22.7
2023-05-12T09:58:01.194Z,22.7
2023-05-12T09:59:02.845Z,22.7
2023-05-12T10:00:14.023Z,22.7
2023-05-12T10:02:00.088Z,22.7
2023-05-12T10:03:02.374Z,22.6
2023-05-12T10:04:04.132Z,22.5
2023-05-12T10:05:05.959Z,22.4
2023-05-12T10:06:08.334Z,22.4
2023-05-12T10:07:09.988Z,22.4
2023-05-12T10:08:11.728Z,22.4
2023-05-12T10:09:13.491Z,22.4
2023-05-12T10:10:15.061Z,22.4
2023-05-12T10:11:17.184Z,22.4
2023-05-12T10:12:18.928Z,22.5
2023-05-12T10:13:20.544Z,22.4
2023-05-12T10:14:22.217Z,22.4
2023-05-12T10:15:23.917Z,22.4
2023-05-12T10:16:25.537Z,22.4
2023-05-12T10:17:27.734Z,22.4
2023-05-12T10:18:29.964Z,22.4
2023-05-12T10:19:31.670Z,22.4
2023-05-12T10:20:33.313Z,22.3
2023-05-12T10:21:34.965Z,22.3
2023-05-12T10:22:36.572Z,22.3
2023-05-12T10:23:38.542Z,22.3
2023-05-12T10:24:40.160Z,22.3
2023-05-12T10:25:41.835Z,22.3
2023-05-12T10:26:43.434Z,22.1
2023-05-12T10:27:45.066Z,22.2
2023-05-12T10:28:46.741Z,22.1
2023-05-12T10:29:48.584Z,22.1
2023-05-12T10:30:55.072Z,22.2
2023-05-12T10:31:56.846Z,22.2
2023-05-12T10:32:58.769Z,22.1
2023-05-12T10:34:00.687Z,22.1
2023-05-12T10:35:02.369Z,22.1
2023-05-12T10:36:03.963Z,22
2023-05-12T10:37:05.566Z,22.2
2023-05-12T10:38:07.222Z,22.1
2023-05-12T10:39:08.967Z,22
2023-05-12T10:40:10.840Z,22.1
2023-05-12T10:41:12.503Z,22
2023-05-12T10:42:14.243Z,21.9
2023-05-12T10:43:15.900Z,21.9
2023-05-12T10:44:17.631Z,21.8
2023-05-12T10:45:20.026Z,21.7
2023-05-12T10:46:22.963Z,21.8
2023-05-12T10:47:24.929Z,21.8
2023-05-12T10:48:27.600Z,21.7
2023-05-12T10:49:29.445Z,21.7
2023-05-12T10:50:31.097Z,21.6
2023-05-12T10:51:32.902Z,21.7
2023-05-12T10:52:34.771Z,21.7
2023-05-12T10:53:51.254Z,21.7
2023-05-12T10:54:56.870Z,21.7
2023-05-12T10:55:59.238Z,21.6
2023-05-12T10:57:02.455Z,21.6
2023-05-12T10:58:05.925Z,21.6
2023-05-12T10:59:10.179Z,21.6
2023-05-12T11:00:13.809Z,21.6
2023-05-12T11:01:18.689Z,21.5
2023-05-12T11:02:24.906Z,21.6
2023-05-12T11:03:31.476Z,21.7
2023-05-12T11:04:38.029Z,21.7
2023-05-12T11:05:40.701Z,21.7
2023-05-12T11:06:46.738Z,21.7
2023-05-12T11:07:52.818Z,21.6
2023-05-12T11:08:58.701Z,21.5
2023-05-12T11:10:04.637Z,21.5
2023-05-12T11:11:10.078Z,21.5
2023-05-12T11:12:12.880Z,21.5
2023-05-12T11:13:14.592Z,21.5
2023-05-12T11:14:17.341Z,21.5
2023-05-12T11:15:19.162Z,21.6
2023-05-12T11:16:21.842Z,21.6
2023-05-12T11:17:23.681Z,21.6
2023-05-12T11:18:25.422Z,21.6
2023-05-12T11:19:27.233Z,21.6
2023-05-12T11:20:31.281Z,21.5
2023-05-12T11:21:32.895Z,21.6
2023-05-12T11:22:34.480Z,21.5
2023-05-12T11:23:36.084Z,21.6
2023-05-12T11:24:37.998Z,21.5
2023-05-12T11:25:43.534Z,21.6
2023-05-12T11:26:46.217Z,21.6
2023-05-12T11:27:47.944Z,21.6
2023-05-12T11:28:49.605Z,21.5
2023-05-12T11:29:51.298Z,21.7
2023-05-12T11:30:55.882Z,21.7
2023-05-12T11:31:57.913Z,21.6
2023-05-12T11:33:00.235Z,21.5
2023-05-12T11:34:13.585Z,21.5
2023-05-12T11:35:15.528Z,21.5
2023-05-12T11:36:17.893Z,21.6
2023-05-12T11:37:23.231Z,21.6
2023-05-12T11:38:24.919Z,21.6
2023-05-12T11:39:26.705Z,21.5
2023-05-12T11:40:28.548Z,21.4
2023-05-12T11:41:30.252Z,21.5
2023-05-12T11:42:32.468Z,21.6
2023-05-12T11:43:34.186Z,21.6
2023-05-12T11:44:35.910Z,21.7
2023-05-12T11:45:37.808Z,21.6
2023-05-12T11:46:39.555Z,21.6
2023-05-12T11:47:41.411Z,21.6
2023-05-12T11:48:43.238Z,21.5
2023-05-12T11:49:45.067Z,21.5
2023-05-12T11:50:47.042Z,21.5
2023-05-12T11:51:49.178Z,21.5
2023-05-12T11:52:50.848Z,21.4
2023-05-12T11:53:53.099Z,21.4
2023-05-12T11:54:55.689Z,21.4
2023-05-12T11:55:57.523Z,21.3
2023-05-12T11:56:59.279Z,21.4
2023-05-12T11:58:01.123Z,21.3
2023-05-12T11:59:02.970Z,21.4
2023-05-12T12:00:04.836Z,21.4
2023-05-12T12:01:06.535Z,21.3
2023-05-12T12:02:08.278Z,21.3
2023-05-12T12:03:10.946Z,21.2
2023-05-12T12:04:13.235Z,21.3
2023-05-12T12:05:15.004Z,21.5
2023-05-12T12:06:16.733Z,21.4
2023-05-12T12:07:18.794Z,21.3
2023-05-12T12:08:20.475Z,21.3
2023-05-12T12:09:22.292Z,21.4
2023-05-12T12:10:24.177Z,21.5
2023-05-12T12:11:25.998Z,21.4
2023-05-12T12:12:27.843Z,21.5
2023-05-12T12:13:29.695Z,21.4
2023-05-12T12:14:31.521Z,21.4
2023-05-12T12:15:33.295Z,21.4
2023-05-12T12:16:35.196Z,21.4
2023-05-12T12:17:37.533Z,21.3
2023-05-12T12:18:39.591Z,21.4
2023-05-12T12:19:41.614Z,21.4
2023-05-12T12:20:43.368Z,21.4
2023-05-12T12:21:45.458Z,21.4
2023-05-12T12:22:50.128Z,21.5
2023-05-12T12:23:52.091Z,21.4
2023-05-12T12:24:53.937Z,21.4
2023-05-12T12:25:55.690Z,21.4
2023-05-12T12:26:57.638Z,21.4
2023-05-12T12:27:59.458Z,21.4
2023-05-12T12:29:01.324Z,21.4
2023-05-12T12:30:03.093Z,21.4
2023-05-12T12:31:04.857Z,21.4
2023-05-12T12:32:06.778Z,21.4
2023-05-12T12:33:08.884Z,21.4
2023-05-12T12:34:10.991Z,21.4
2023-05-12T12:35:12.669Z,21.4
2023-05-12T12:36:14.495Z,21.4
2023-05-12T12:37:16.252Z,21.4
2023-05-12T12:38:18.599Z,21.4
2023-05-12T12:39:20.440Z,21.4
2023-05-12T12:40:22.405Z,21.3
2023-05-12T12:41:24.361Z,21.4
2023-05-12T12:42:26.122Z,21.4
2023-05-12T12:43:27.927Z,21.4
2023-05-12T12:44:29.809Z,21.3
2023-05-12T12:45:31.645Z,21.3
2023-05-12T12:46:33.514Z,21.3
2023-05-12T12:47:35.367Z,21.3
2023-05-12T12:48:37.295Z,21.3
2023-05-12T12:49:38.949Z,21.4
2023-05-12T12:50:43.879Z,21.4
2023-05-12T12:51:47.451Z,21.3
2023-05-12T12:52:49.336Z,21.4
2023-05-12T12:53:51.158Z,21.4
2023-05-12T12:54:53.130Z,21.3
2023-05-12T12:55:54.964Z,21.3
2023-05-12T12:56:56.835Z,21.4
2023-05-12T12:57:58.485Z,21.4
2023-05-12T12:59:00.181Z,21.3
2023-05-12T13:00:04.315Z,21.3
2023-05-12T13:01:06.325Z,21.3
2023-05-12T13:02:08.570Z,21.3
2023-05-12T13:03:10.510Z,21.3
2023-05-12T13:04:12.540Z,21.2
2023-05-12T13:05:14.310Z,21.3
2023-05-12T13:06:16.136Z,21.3
2023-05-12T13:07:18.086Z,21.2
2023-05-12T13:08:19.965Z,21.2
2023-05-12T13:09:21.901Z,21.2
2023-05-12T13:10:23.740Z,21.3
2023-05-12T13:11:25.585Z,21.3
2023-05-12T13:12:27.355Z,21.3
2023-05-12T13:13:28.990Z,21.3
2023-05-12T13:14:30.732Z,21.2
2023-05-12T13:15:32.569Z,21.3
2023-05-12T13:16:34.547Z,21.3
2023-05-12T13:17:36.532Z,21.3
2023-05-12T13:18:38.585Z,21.3
2023-05-12T13:19:40.725Z,21.4
2023-05-12T13:20:42.431Z,21.3
2023-05-12T13:21:44.185Z,21.2
2023-05-12T13:22:46.071Z,21.1
2023-05-12T13:23:48.106Z,21.1
2023-05-12T13:24:49.947Z,21.1
2023-05-12T13:25:51.904Z,21.1
2023-05-12T13:26:53.736Z,21.1
2023-05-12T13:27:55.568Z,21.1
2023-05-12T13:28:57.369Z,21.2
2023-05-12T13:29:59.200Z,21.2
2023-05-12T13:31:01.183Z,21.2
2023-05-12T13:32:02.966Z,21.2
2023-05-12T13:33:06.608Z,21.2
2023-05-12T13:34:08.627Z,21.2
2023-05-12T13:35:10.319Z,21.2
2023-05-12T13:36:12.160Z,21.1
2023-05-12T13:37:13.978Z,21.2
2023-05-12T13:38:15.843Z,21.2
2023-05-12T13:39:19.926Z,21.1
2023-05-12T13:40:21.995Z,21.1
2023-05-12T13:41:23.823Z,21.1
2023-05-12T13:42:25.795Z,21.1
2023-05-12T13:43:27.598Z,21.1
2023-05-12T13:44:29.379Z,21.2
2023-05-12T13:45:31.208Z,21.1
2023-05-12T13:46:33.466Z,21.2
2023-05-12T13:47:35.565Z,21.2
2023-05-12T13:48:37.448Z,21.1
2023-05-12T13:49:39.356Z,21.1
2023-05-12T13:50:41.221Z,21.2
2023-05-12T13:51:43.055Z,21.1
2023-05-12T13:52:45.010Z,21.1
2023-05-12T13:53:46.860Z,21.1
2023-05-12T13:54:48.711Z,21.1
2023-05-12T13:55:50.966Z,21.1
2023-05-12T13:56:52.676Z,21.1